createdAt,value
2023-04-27T00:00:57.343Z,62.61
2023-04-27T00:03:19.028Z,62.77
2023-04-27T00:05:40.752Z,62.21
2023-04-27T00:08:02.913Z,63.67
2023-04-27T00:10:24.370Z,64.01
2023-04-27T00:12:46.054Z,65.62
2023-04-27T00:15:08.508Z,67.58
2023-04-27T00:17:30.004Z,65.65
2023-04-27T00:19:52.242Z,66.41
2023-04-27T00:22:14.065Z,68.99
2023-04-27T00:24:35.649Z,67.38
2023-04-27T00:26:57.817Z,66.32
2023-04-27T00:29:19.343Z,65.69
2023-04-27T00:31:40.973Z,65.08
2023-04-27T00:34:02.550Z,65.17
2023-04-27T00:36:24.035Z,64.51
2023-04-27T00:38:45.484Z,64.42
2023-04-27T00:41:07.925Z,64.04
2023-04-27T00:43:29.673Z,63.58
2023-04-27T00:45:51.333Z,63.83
2023-04-27T00:48:13.442Z,64.18
2023-04-27T00:50:35.248Z,64.70
2023-04-27T00:52:57.000Z,65.26
2023-04-27T00:55:19.503Z,66.76
2023-04-27T00:57:40.952Z,66.29
2023-04-27T01:00:06.628Z,66.11
2023-04-27T01:02:29.702Z,68.77
2023-04-27T01:04:52.100Z,70.15
2023-04-27T01:07:13.568Z,70.38
2023-04-27T01:09:35.018Z,69.05
2023-04-27T01:11:58.241Z,68.74
2023-04-27T01:14:19.700Z,69.63
2023-04-27T01:16:41.232Z,69.90
2023-04-27T01:19:03.732Z,71.16
2023-04-27T01:21:26.321Z,71.32
2023-04-27T01:23:47.800Z,70.75
2023-04-27T01:26:11.920Z,71.02
2023-04-27T01:28:33.388Z,71.94
2023-04-27T01:30:54.879Z,72.07
2023-04-27T01:33:17.430Z,71.43
2023-04-27T01:35:39.013Z,70.54
2023-04-27T01:38:00.619Z,72.15
2023-04-27T01:40:22.052Z,71.90
2023-04-27T01:42:43.513Z,72.19
2023-04-27T01:45:05.721Z,71.46
2023-04-27T01:47:27.823Z,71.24
2023-04-27T01:49:49.396Z,72.40
2023-04-27T01:52:10.842Z,71.41
2023-04-27T01:54:32.283Z,72.15
2023-04-27T01:56:53.726Z,71.14
2023-04-27T01:59:15.421Z,71.02
2023-04-27T02:01:37.112Z,70.40
2023-04-27T02:03:58.711Z,70.10
2023-04-27T02:06:20.427Z,70.45
2023-04-27T02:08:41.937Z,70.58
2023-04-27T02:11:03.547Z,71.51
2023-04-27T02:13:24.997Z,72.94
2023-04-27T02:15:46.604Z,72.86
2023-04-27T02:18:08.106Z,73.30
2023-04-27T02:20:33.504Z,73.31
2023-04-27T02:22:54.929Z,72.58
2023-04-27T02:25:16.619Z,71.89
2023-04-27T02:27:38.988Z,71.21
2023-04-27T02:30:05.310Z,71.27
2023-04-27T02:32:27.310Z,71.28
2023-04-27T02:34:48.783Z,72.76
2023-04-27T02:37:10.469Z,72.54
2023-04-27T02:39:31.910Z,72.66
2023-04-27T02:41:53.353Z,74.51
2023-04-27T02:44:14.762Z,72.88
2023-04-27T02:46:36.268Z,72.11
2023-04-27T02:48:57.750Z,71.63
2023-04-27T02:51:19.196Z,71.19
2023-04-27T02:53:41.049Z,70.68
2023-04-27T02:56:03.025Z,72.72
2023-04-27T02:58:24.597Z,73.58
2023-04-27T03:00:47.167Z,73.70
2023-04-27T03:03:13.011Z,74.60
2023-04-27T03:05:34.648Z,73.61
2023-04-27T03:07:56.230Z,73.14
2023-04-27T03:10:17.708Z,74.95
2023-04-27T03:12:39.389Z,75.36
2023-04-27T03:15:01.167Z,75.91
2023-04-27T03:17:22.680Z,74.88
2023-04-27T03:19:44.130Z,73.49
2023-04-27T03:22:05.692Z,73.05
2023-04-27T03:24:27.746Z,72.29
2023-04-27T03:26:49.188Z,72.08
2023-04-27T03:29:10.739Z,71.60
2023-04-27T03:31:32.230Z,71.18
2023-04-27T03:33:53.722Z,71.88
2023-04-27T03:36:15.498Z,76.51
2023-04-27T03:38:37.235Z,76.30
2023-04-27T03:40:58.968Z,73.88
2023-04-27T03:43:21.565Z,73.28
2023-04-27T03:45:43.067Z,72.72
2023-04-27T03:48:04.991Z,73.86
2023-04-27T03:50:27.924Z,73.86
2023-04-27T03:52:50.990Z,73.78
2023-04-27T03:55:12.644Z,73.37
2023-04-27T03:57:34.119Z,72.34
2023-04-27T03:59:55.658Z,72.00
2023-04-27T04:02:17.296Z,71.92
2023-04-27T04:04:39.096Z,71.51
2023-04-27T04:07:00.703Z,71.08
2023-04-27T04:09:23.841Z,71.12
2023-04-27T04:11:45.626Z,70.92
2023-04-27T04:14:07.070Z,70.64
2023-04-27T04:16:28.564Z,70.42
2023-04-27T04:18:50.042Z,69.92
2023-04-27T04:21:11.618Z,70.34
2023-04-27T04:23:33.977Z,69.86
2023-04-27T04:25:58.870Z,69.94
2023-04-27T04:28:20.382Z,71.76
2023-04-27T04:30:43.218Z,71.50
2023-04-27T04:33:04.754Z,71.92
2023-04-27T04:35:26.273Z,72.12
2023-04-27T04:37:47.694Z,72.07
2023-04-27T04:40:10.080Z,73.55
2023-04-27T04:42:33.234Z,76.15
2023-04-27T04:44:54.746Z,75.92
2023-04-27T04:47:17.754Z,75.28
2023-04-27T04:49:39.614Z,74.58
2023-04-27T04:52:01.169Z,74.15
2023-04-27T04:54:22.608Z,73.63
2023-04-27T04:56:44.086Z,73.95
2023-04-27T04:59:05.666Z,72.74
2023-04-27T05:01:27.328Z,72.11
2023-04-27T05:03:48.948Z,73.15
2023-04-27T05:06:10.567Z,75.12
2023-04-27T05:08:32.006Z,75.69
2023-04-27T05:10:54.344Z,75.92
2023-04-27T05:13:16.030Z,74.19
2023-04-27T05:15:37.602Z,72.40
2023-04-27T05:17:59.127Z,71.67
2023-04-27T05:20:20.801Z,70.96
2023-04-27T05:22:42.249Z,70.39
2023-04-27T05:25:04.605Z,70.66
2023-04-27T05:27:26.276Z,70.86
2023-04-27T05:29:47.753Z,71.79
2023-04-27T05:32:09.726Z,71.24
2023-04-27T05:34:31.232Z,70.69
2023-04-27T05:36:52.665Z,70.63
2023-04-27T05:39:14.534Z,70.46
2023-04-27T05:41:36.360Z,69.10
2023-04-27T05:43:57.778Z,68.59
2023-04-27T05:46:19.314Z,68.01
2023-04-27T05:48:41.257Z,67.99
2023-04-27T05:51:03.512Z,66.57
2023-04-27T05:53:25.000Z,65.45
2023-04-27T05:55:46.511Z,62.80
2023-04-27T05:58:09.189Z,62.21
2023-04-27T06:00:31.789Z,61.23
2023-04-27T06:02:53.353Z,60.73
2023-04-27T06:05:15.197Z,60.79
2023-04-27T06:07:37.864Z,60.11
2023-04-27T06:09:59.337Z,59.89
2023-04-27T06:12:20.784Z,60.05
2023-04-27T06:14:42.261Z,58.95
2023-04-27T06:17:04.372Z,58.86
2023-04-27T06:19:26.884Z,59.56
2023-04-27T06:21:48.341Z,59.74
2023-04-27T06:24:09.801Z,59.32
2023-04-27T06:26:31.497Z,59.89
2023-04-27T06:28:52.922Z,59.06
2023-04-27T06:31:14.391Z,57.60
2023-04-27T06:33:35.811Z,57.48
2023-04-27T06:35:57.276Z,56.33
2023-04-27T06:38:18.733Z,53.12
2023-04-27T06:40:40.429Z,53.87
2023-04-27T06:43:01.860Z,55.17
2023-04-27T06:45:23.359Z,55.46
2023-04-27T06:47:45.161Z,55.43
2023-04-27T06:50:07.162Z,55.41
2023-04-27T06:52:28.570Z,55.34
2023-04-27T06:54:50.092Z,55.39
2023-04-27T06:57:11.575Z,54.58
2023-04-27T06:59:33.102Z,53.33
2023-04-27T07:01:54.662Z,51.17
2023-04-27T07:04:16.255Z,51.47
2023-04-27T07:06:37.680Z,50.80
2023-04-27T07:08:59.745Z,51.97
2023-04-27T07:11:21.533Z,50.99
2023-04-27T07:13:43.382Z,49.82
2023-04-27T07:16:05.268Z,49.51
2023-04-27T07:18:28.276Z,48.98
2023-04-27T07:20:49.818Z,49.32
2023-04-27T07:23:11.388Z,49.22
2023-04-27T07:25:33.163Z,49.07
2023-04-27T07:27:55.064Z,49.71
2023-04-27T07:30:17.886Z,48.08
2023-04-27T07:32:41.567Z,49.15
2023-04-27T07:35:03.708Z,49.39
2023-04-27T07:37:25.171Z,48.66
2023-04-27T07:39:46.802Z,47.05
2023-04-27T07:42:08.690Z,46.78
2023-04-27T07:44:31.451Z,47.11
2023-04-27T07:46:54.782Z,47.33
2023-04-27T07:49:16.558Z,46.86
2023-04-27T07:51:38.142Z,46.93
2023-04-27T07:53:59.598Z,46.59
2023-04-27T07:56:21.542Z,45.61
2023-04-27T07:58:43.379Z,44.87
2023-04-27T08:01:04.843Z,44.74
2023-04-27T08:03:27.224Z,44.37
2023-04-27T08:05:49.129Z,43.90
2023-04-27T08:08:11.330Z,44.86
2023-04-27T08:10:32.870Z,44.86
2023-04-27T08:12:54.373Z,44.94
2023-04-27T08:15:15.895Z,42.99
2023-04-27T08:17:39.001Z,43.13
2023-04-27T08:20:00.556Z,43.97
2023-04-27T08:22:22.011Z,43.82
2023-04-27T08:24:43.492Z,42.60
2023-04-27T08:27:06.605Z,43.47
2023-04-27T08:29:29.047Z,42.83
2023-04-27T08:31:51.209Z,43.26
2023-04-27T08:34:12.813Z,43.08
2023-04-27T08:36:34.401Z,42.04
2023-04-27T08:38:56.011Z,41.45
2023-04-27T08:41:22.463Z,41.86
2023-04-27T08:43:45.052Z,41.42
2023-04-27T08:46:06.591Z,41.41
2023-04-27T08:48:28.726Z,42.25
2023-04-27T08:50:51.720Z,40.93
2023-04-27T08:53:23.206Z,41.72
2023-04-27T08:55:44.681Z,41.39
2023-04-27T08:58:06.253Z,41.52
2023-04-27T09:00:44.141Z,42.32
2023-04-27T09:03:05.852Z,42.70
2023-04-27T09:05:27.675Z,40.34
2023-04-27T09:07:59.863Z,40.38
2023-04-27T09:10:23.195Z,39.19
2023-04-27T09:12:55.051Z,39.73
2023-04-27T09:15:16.630Z,40.22
2023-04-27T09:17:38.958Z,40.45
2023-04-27T09:20:13.637Z,40.06
2023-04-27T09:22:48.943Z,39.53
2023-04-27T09:25:10.903Z,39.58
2023-04-27T09:27:32.370Z,39.03
2023-04-27T09:29:53.795Z,37.86
2023-04-27T09:32:17.358Z,37.66
2023-04-27T09:34:41.082Z,36.95
2023-04-27T09:37:02.726Z,37.20
2023-04-27T09:39:24.396Z,37.40
2023-04-27T09:41:46.772Z,35.20
2023-04-27T09:44:08.474Z,35.31
2023-04-27T09:46:33.482Z,36.08
2023-04-27T09:48:56.449Z,35.80
2023-04-27T09:51:17.930Z,35.89
2023-04-27T09:53:46.653Z,37.33
2023-04-27T09:56:25.911Z,35.85
2023-04-27T09:58:59.822Z,34.98
2023-04-27T10:01:46.360Z,35.06
2023-04-27T10:04:35.983Z,34.13
2023-04-27T10:07:02.581Z,33.66
2023-04-27T10:09:24.742Z,33.07
2023-04-27T10:11:47.884Z,34.23
2023-04-27T10:14:11.262Z,33.86
2023-04-27T10:16:47.139Z,33.82
2023-04-27T10:19:09.738Z,33.54
2023-04-27T10:21:32.916Z,33.85
2023-04-27T10:23:54.483Z,35.76
2023-04-27T10:26:26.590Z,33.82
2023-04-27T10:29:04.497Z,34.08
2023-04-27T10:31:29.502Z,34.07
2023-04-27T10:33:51.306Z,35.25
2023-04-27T10:36:16.113Z,35.17
2023-04-27T10:38:40.627Z,34.94
2023-04-27T10:41:03.465Z,36.01
2023-04-27T10:43:27.209Z,36.03
2023-04-27T10:45:48.899Z,36.43
2023-04-27T10:48:14.379Z,37.84
2023-04-27T10:50:35.913Z,37.96
2023-04-27T10:53:16.788Z,37.22
2023-04-27T10:55:38.394Z,36.08
2023-04-27T10:58:01.476Z,35.65
2023-04-27T11:00:44.294Z,35.55
2023-04-27T11:03:17.097Z,35.46
2023-04-27T11:05:38.780Z,34.23
2023-04-27T11:08:21.023Z,36.44
2023-04-27T11:10:50.135Z,34.70
2023-04-27T11:13:25.698Z,35.79
2023-04-27T11:15:49.449Z,34.56
2023-04-27T11:18:10.999Z,34.38
2023-04-27T11:20:32.506Z,35.06
2023-04-27T11:22:54.084Z,34.85
2023-04-27T11:25:15.675Z,35.02
2023-04-27T11:27:41.213Z,35.06
2023-04-27T11:30:02.740Z,35.23
2023-04-27T11:32:25.806Z,35.24
2023-04-27T11:34:53.462Z,33.72
2023-04-27T11:37:22.804Z,34.76
2023-04-27T11:39:45.868Z,34.65
2023-04-27T11:42:31.610Z,34.96
2023-04-27T11:44:58.516Z,33.94
2023-04-27T11:47:21.335Z,34.46
2023-04-27T11:49:47.169Z,33.45
2023-04-27T11:52:08.720Z,31.45
2023-04-27T11:54:30.165Z,31.62
2023-04-27T11:56:51.602Z,31.59
2023-04-27T11:59:26.398Z,30.59
2023-04-27T12:01:47.921Z,30.81
2023-04-27T12:04:09.598Z,30.23
2023-04-27T12:06:33.169Z,30.54
2023-04-27T12:08:58.294Z,29.61
2023-04-27T12:11:19.891Z,30.03
2023-04-27T12:13:41.318Z,28.17
2023-04-27T12:16:02.771Z,29.38
2023-04-27T12:18:24.195Z,27.42
2023-04-27T12:20:46.111Z,27.11
2023-04-27T12:23:07.572Z,28.04
2023-04-27T12:25:29.211Z,25.20
2023-04-27T12:27:51.061Z,27.18
2023-04-27T12:30:13.563Z,25.09
2023-04-27T12:32:35.072Z,24.08
2023-04-27T12:34:56.614Z,22.95
2023-04-27T12:37:18.044Z,22.27
2023-04-27T12:39:39.498Z,21.87
2023-04-27T12:42:01.866Z,22.35
2023-04-27T12:44:23.395Z,22.07
2023-04-27T12:46:46.402Z,21.72
2023-04-27T12:49:09.376Z,22.77
2023-04-27T12:51:30.863Z,21.58
2023-04-27T12:53:52.463Z,21.39
2023-04-27T12:56:13.939Z,21.14
2023-04-27T12:58:35.359Z,19.98
2023-04-27T13:01:00.255Z,21.14
2023-04-27T13:03:21.813Z,22.65
2023-04-27T13:05:44.501Z,20.92
2023-04-27T13:08:05.948Z,21.59
2023-04-27T13:10:33.670Z,21.62
2023-04-27T13:12:55.499Z,21.21
2023-04-27T13:15:17.074Z,21.77
2023-04-27T13:17:38.615Z,21.08
2023-04-27T13:20:00.231Z,22.00
2023-04-27T13:22:21.704Z,21.66
2023-04-27T13:24:43.180Z,21.68
2023-04-27T13:27:05.137Z,20.96
2023-04-27T13:29:26.731Z,21.25
2023-04-27T13:31:48.212Z,21.87
2023-04-27T13:34:09.689Z,20.47
2023-04-27T13:36:31.236Z,20.25
2023-04-27T13:38:52.775Z,20.91
2023-04-27T13:41:14.245Z,21.32
2023-04-27T13:43:35.800Z,20.92
2023-04-27T13:46:01.621Z,20.53
2023-04-27T13:48:23.627Z,20.06
2023-04-27T13:50:45.268Z,20.52
2023-04-27T13:53:06.992Z,20.10
2023-04-27T13:55:28.769Z,19.26
2023-04-27T13:57:50.221Z,19.36
2023-04-27T14:00:12.813Z,20.10
2023-04-27T14:02:34.533Z,18.73
2023-04-27T14:04:56.819Z,18.97
2023-04-27T14:07:19.634Z,18.90
2023-04-27T14:09:41.963Z,18.00
2023-04-27T14:12:03.631Z,17.25
2023-04-27T14:14:25.096Z,17.54
2023-04-27T14:16:46.942Z,17.97
2023-04-27T14:19:08.938Z,18.73
2023-04-27T14:21:30.372Z,19.05
2023-04-27T14:23:51.806Z,19.64
2023-04-27T14:26:13.485Z,20.60
2023-04-27T14:28:34.933Z,20.89
2023-04-27T14:30:56.401Z,22.00
2023-04-27T14:33:17.941Z,21.38
2023-04-27T14:35:39.552Z,21.91
2023-04-27T14:38:04.306Z,22.39
2023-04-27T14:40:25.774Z,23.68
2023-04-27T14:42:47.295Z,23.60
2023-04-27T14:45:09.312Z,23.56
2023-04-27T14:47:31.085Z,24.36
2023-04-27T14:49:52.571Z,23.43
2023-04-27T14:52:14.073Z,24.56
2023-04-27T14:54:38.035Z,23.68
2023-04-27T14:57:01.067Z,24.04
2023-04-27T14:59:23.171Z,23.25
2023-04-27T15:01:44.676Z,22.88
2023-04-27T15:04:06.424Z,22.62
2023-04-27T15:06:28.726Z,22.17
2023-04-27T15:08:50.203Z,22.48
2023-04-27T15:11:11.715Z,21.89
2023-04-27T15:13:33.158Z,23.20
2023-04-27T15:15:58.648Z,23.27
2023-04-27T15:18:20.188Z,23.49
2023-04-27T15:20:43.117Z,24.90
2023-04-27T15:23:05.685Z,24.62
2023-04-27T15:25:27.170Z,24.80
2023-04-27T15:27:49.605Z,25.19
2023-04-27T15:30:11.616Z,25.77
2023-04-27T15:32:33.464Z,25.83
2023-04-27T15:34:55.163Z,26.21
2023-04-27T15:37:16.575Z,26.32
2023-04-27T15:39:38.113Z,26.35
2023-04-27T15:41:59.858Z,26.77
2023-04-27T15:44:21.451Z,26.35
2023-04-27T15:46:42.928Z,26.32
2023-04-27T15:49:04.590Z,26.55
2023-04-27T15:51:26.785Z,26.46
2023-04-27T15:53:48.248Z,26.84
2023-04-27T15:56:09.706Z,26.69
2023-04-27T15:58:31.185Z,27.17
2023-04-27T16:00:52.750Z,26.24
2023-04-27T16:03:14.563Z,26.27
2023-04-27T16:05:36.650Z,27.00
2023-04-27T16:07:58.361Z,27.82
2023-04-27T16:10:19.783Z,28.66
2023-04-27T16:12:41.397Z,28.52
2023-04-27T16:15:03.026Z,28.43
2023-04-27T16:17:25.388Z,28.25
2023-04-27T16:19:46.886Z,29.21
2023-04-27T16:22:08.355Z,28.31
2023-04-27T16:24:31.210Z,28.78
2023-04-27T16:26:52.779Z,28.64
2023-04-27T16:29:14.481Z,29.05
2023-04-27T16:31:36.138Z,29.65
2023-04-27T16:33:57.665Z,29.83
2023-04-27T16:36:19.130Z,29.21
2023-04-27T16:38:40.991Z,30.30
2023-04-27T16:41:02.500Z,30.12
2023-04-27T16:43:24.597Z,30.14
2023-04-27T16:45:46.452Z,30.78
2023-04-27T16:48:10.307Z,30.54
2023-04-27T16:50:32.263Z,30.23
2023-04-27T16:52:53.708Z,30.56
2023-04-27T16:55:15.221Z,31.12
2023-04-27T16:57:37.083Z,31.07
2023-04-27T16:59:58.518Z,30.87
2023-04-27T17:02:24.969Z,31.26
2023-04-27T17:04:47.109Z,31.17
2023-04-27T17:07:09.205Z,31.73
2023-04-27T17:09:31.114Z,31.92
2023-04-27T17:11:52.569Z,33.65
2023-04-27T17:14:14.356Z,32.80
2023-04-27T17:16:35.828Z,33.13
2023-04-27T17:18:57.573Z,33.21
2023-04-27T17:21:21.543Z,33.38
2023-04-27T17:23:43.009Z,33.35
2023-04-27T17:26:04.696Z,33.22
2023-04-27T17:28:26.377Z,33.08
2023-04-27T17:30:47.917Z,32.80
2023-04-27T17:33:10.103Z,33.12
2023-04-27T17:35:31.815Z,33.55
2023-04-27T17:37:53.297Z,33.93
2023-04-27T17:40:19.211Z,33.94
2023-04-27T17:42:40.683Z,34.37
2023-04-27T17:45:02.151Z,35.49
2023-04-27T17:47:25.432Z,35.08
2023-04-27T17:49:46.934Z,35.29
2023-04-27T17:52:08.431Z,35.66
2023-04-27T17:54:30.286Z,35.60
2023-04-27T17:56:51.812Z,35.90
2023-04-27T17:59:13.540Z,35.52
2023-04-27T18:01:35.412Z,35.98
2023-04-27T18:03:56.955Z,36.22
2023-04-27T18:06:21.531Z,36.73
2023-04-27T18:08:42.954Z,37.16
2023-04-27T18:11:04.550Z,36.90
2023-04-27T18:13:27.154Z,37.47
2023-04-27T18:15:48.601Z,38.16
2023-04-27T18:18:11.268Z,38.03
2023-04-27T18:20:32.732Z,38.52
2023-04-27T18:22:54.199Z,38.55
2023-04-27T18:25:15.780Z,38.71
2023-04-27T18:27:37.843Z,39.12
2023-04-27T18:29:59.416Z,39.32
2023-04-27T18:32:22.002Z,39.71
2023-04-27T18:34:43.640Z,39.89
2023-04-27T18:37:05.082Z,39.94
2023-04-27T18:39:26.618Z,40.18
2023-04-27T18:41:48.291Z,40.20
2023-04-27T18:44:09.720Z,40.50
2023-04-27T18:46:32.056Z,40.81
2023-04-27T18:48:53.534Z,40.54
2023-04-27T18:51:14.996Z,40.70
2023-04-27T18:53:36.738Z,40.91
2023-04-27T18:55:58.269Z,41.07
2023-04-27T18:58:19.746Z,40.97
2023-04-27T19:00:41.206Z,41.31
2023-04-27T19:03:02.792Z,41.28
2023-04-27T19:05:24.587Z,41.26
2023-04-27T19:07:46.194Z,41.61
2023-04-27T19:10:08.277Z,41.82
2023-04-27T19:12:30.044Z,42.07
2023-04-27T19:14:51.849Z,42.05
2023-04-27T19:17:13.474Z,42.07
2023-04-27T19:19:34.981Z,42.46
2023-04-27T19:21:58.307Z,42.62
2023-04-27T19:24:19.785Z,42.63
2023-04-27T19:26:41.409Z,42.94
2023-04-27T19:29:03.468Z,42.85
2023-04-27T19:31:25.033Z,42.95
2023-04-27T19:33:47.155Z,43.27
2023-04-27T19:36:08.877Z,43.39
2023-04-27T19:38:30.895Z,44.44
2023-04-27T19:40:52.415Z,44.30
2023-04-27T19:43:14.045Z,44.73
2023-04-27T19:45:35.529Z,44.24
2023-04-27T19:47:57.025Z,44.55
2023-04-27T19:50:18.576Z,44.47
2023-04-27T19:52:40.097Z,45.17
2023-04-27T19:55:01.600Z,44.97
2023-04-27T19:57:23.203Z,46.78
2023-04-27T19:59:44.637Z,46.92
2023-04-27T20:02:06.801Z,47.51
2023-04-27T20:04:28.996Z,47.53
2023-04-27T20:06:50.619Z,47.70
2023-04-27T20:09:12.087Z,47.96
2023-04-27T20:11:33.549Z,47.52
2023-04-27T20:13:55.048Z,47.51
2023-04-27T20:16:18.327Z,47.93
2023-04-27T20:18:39.764Z,48.05
2023-04-27T20:21:01.187Z,49.04
2023-04-27T20:23:22.688Z,49.49
2023-04-27T20:25:44.100Z,49.00
2023-04-27T20:28:05.545Z,49.53
2023-04-27T20:30:27.893Z,49.52
2023-04-27T20:32:49.329Z,50.26
2023-04-27T20:35:11.397Z,49.67
2023-04-27T20:37:33.128Z,50.63
2023-04-27T20:39:54.605Z,50.25
2023-04-27T20:42:16.152Z,49.81
2023-04-27T20:44:39.072Z,49.93
2023-04-27T20:47:00.640Z,49.68
2023-04-27T20:49:31.734Z,50.39
2023-04-27T20:51:55.717Z,50.30
2023-04-27T20:54:17.180Z,49.50
2023-04-27T20:56:38.651Z,50.45
2023-04-27T20:59:00.149Z,52.54
2023-04-27T21:01:21.729Z,51.63
2023-04-27T21:03:43.572Z,51.73
2023-04-27T21:06:05.520Z,51.38
2023-04-27T21:08:28.139Z,51.29
2023-04-27T21:10:49.614Z,51.23
2023-04-27T21:13:11.228Z,51.23
2023-04-27T21:15:33.499Z,51.22
2023-04-27T21:17:55.002Z,51.30
2023-04-27T21:20:17.141Z,51.06
2023-04-27T21:22:38.649Z,51.30
2023-04-27T21:25:00.287Z,51.89
2023-04-27T21:27:22.247Z,53.60
2023-04-27T21:29:43.760Z,54.73
2023-04-27T21:32:05.426Z,54.15
2023-04-27T21:34:27.637Z,53.49
2023-04-27T21:36:49.085Z,53.21
2023-04-27T21:39:10.580Z,52.96
2023-04-27T21:41:34.448Z,53.87
2023-04-27T21:43:55.922Z,55.40
2023-04-27T21:46:17.379Z,56.33
2023-04-27T21:48:38.991Z,55.12
2023-04-27T21:51:00.713Z,54.61
2023-04-27T21:53:23.101Z,54.60
2023-04-27T21:55:44.556Z,54.81
2023-04-27T21:58:06.008Z,54.62
2023-04-27T22:00:27.589Z,55.07
2023-04-27T22:02:49.582Z,54.80
2023-04-27T22:05:11.251Z,56.50
2023-04-27T22:07:32.711Z,55.43
2023-04-27T22:09:54.177Z,54.97
2023-04-27T22:12:15.624Z,55.14
2023-04-27T22:14:37.564Z,54.74
2023-04-27T22:17:00.819Z,55.11
2023-04-27T22:19:22.851Z,57.69
2023-04-27T22:21:44.916Z,57.78
2023-04-27T22:24:06.554Z,56.80
2023-04-27T22:26:28.001Z,56.34
2023-04-27T22:28:49.467Z,57.63
2023-04-27T22:31:10.956Z,58.09
2023-04-27T22:33:32.499Z,58.81
2023-04-27T22:35:53.942Z,57.40
2023-04-27T22:38:15.601Z,56.86
2023-04-27T22:40:37.105Z,57.78
2023-04-27T22:42:58.638Z,57.98
2023-04-27T22:45:20.055Z,59.05
2023-04-27T22:47:41.632Z,59.06
2023-04-27T22:50:03.399Z,59.46
2023-04-27T22:52:24.984Z,58.55
2023-04-27T22:54:46.404Z,58.09
2023-04-27T22:57:07.922Z,58.80
2023-04-27T22:59:29.421Z,60.48
2023-04-27T23:01:51.693Z,60.05
2023-04-27T23:04:14.068Z,59.37
2023-04-27T23:06:36.301Z,58.89
2023-04-27T23:08:57.752Z,58.67
2023-04-27T23:11:19.150Z,58.27
2023-04-27T23:13:40.699Z,58.13
2023-04-27T23:16:02.155Z,58.68
2023-04-27T23:18:23.593Z,58.17
2023-04-27T23:20:45.007Z,59.93
2023-04-27T23:23:06.454Z,61.69
2023-04-27T23:25:27.914Z,61.92
2023-04-27T23:27:51.705Z,63.19
2023-04-27T23:30:13.942Z,63.55
2023-04-27T23:32:36.700Z,62.14
2023-04-27T23:34:58.199Z,62.08
2023-04-27T23:37:19.652Z,61.72
2023-04-27T23:39:41.293Z,62.94
2023-04-27T23:42:03.566Z,62.19
2023-04-27T23:44:25.007Z,63.90
2023-04-27T23:46:46.609Z,67.22
2023-04-27T23:49:08.050Z,65.51
2023-04-27T23:51:29.576Z,66.29
2023-04-27T23:53:51.064Z,64.74
2023-04-27T23:56:19.232Z,63.69
2023-04-27T23:58:40.708Z,65.35
